createdAt,value
2022-09-05T00:02:04.338Z,18.30
2022-09-05T00:05:08.121Z,18.40
2022-09-05T00:08:12.320Z,18.50
2022-09-05T00:11:46.501Z,18.50
2022-09-05T00:15:17.087Z,18.50
2022-09-05T00:22:36.153Z,18.60
2022-09-05T00:24:27.646Z,18.60
2022-09-05T00:25:31.368Z,18.70
2022-09-05T00:28:25.652Z,18.80
2022-09-05T00:31:53.695Z,18.80
2022-09-05T00:35:03.416Z,18.60
2022-09-05T00:37:52.001Z,18.40
2022-09-05T00:40:45.381Z,18.20
2022-09-05T00:43:33.642Z,18.20
2022-09-05T00:46:25.263Z,18.10
2022-09-05T00:49:52.482Z,18.00
2022-09-05T00:52:54.103Z,18.10
2022-09-05T00:56:21.751Z,18.00
2022-09-05T00:59:26.571Z,18.00
2022-09-05T01:02:30.986Z,17.90
2022-09-05T01:05:40.938Z,17.90
2022-09-05T01:09:08.563Z,17.90
2022-09-05T01:12:00.626Z,17.90
2022-09-05T01:15:22.532Z,17.80
2022-09-05T01:18:26.962Z,17.80
2022-09-05T01:21:48.099Z,17.90
2022-09-05T01:24:59.433Z,17.90
2022-09-05T01:28:46.154Z,17.80
2022-09-05T01:31:19.292Z,17.90
2022-09-05T01:34:23.024Z,17.90
2022-09-05T01:37:26.610Z,17.80
2022-09-05T01:41:17.985Z,17.80
2022-09-05T01:44:55.210Z,17.80
2022-09-05T01:47:54.472Z,17.80
2022-09-05T01:50:54.179Z,17.80
2022-09-05T01:53:46.756Z,17.70
2022-09-05T01:56:49.841Z,17.70
2022-09-05T01:59:45.970Z,17.70
2022-09-05T02:02:48.945Z,17.70
2022-09-05T02:05:55.506Z,17.70
2022-09-05T02:09:14.089Z,17.70
2022-09-05T02:12:15.286Z,17.70
2022-09-05T02:15:10.029Z,17.70
2022-09-05T02:18:02.619Z,17.70
2022-09-05T02:21:01.316Z,17.70
2022-09-05T02:24:01.772Z,17.70
2022-09-05T02:26:54.413Z,17.70
2022-09-05T02:29:58.837Z,17.60
2022-09-05T02:33:22.161Z,17.60
2022-09-05T02:36:25.237Z,17.70
2022-09-05T02:45:07.258Z,17.60
2022-09-05T02:45:19.430Z,17.60
2022-09-05T02:46:24.994Z,17.60
2022-09-05T02:52:43.816Z,17.60
2022-09-05T02:57:34.206Z,17.60
2022-09-05T02:57:35.085Z,17.60
2022-09-05T03:00:21.208Z,17.50
2022-09-05T03:03:43.338Z,17.50
2022-09-05T03:06:55.868Z,17.40
2022-09-05T03:09:55.335Z,17.50
2022-09-05T03:12:41.240Z,17.50
2022-09-05T03:15:54.414Z,17.40
2022-09-05T03:18:46.845Z,17.50
2022-09-05T03:22:07.914Z,17.50
2022-09-05T03:25:20.527Z,17.60
2022-09-05T03:28:09.154Z,17.60
2022-09-05T03:31:07.416Z,17.60
2022-09-05T03:34:27.398Z,17.60
2022-09-05T03:37:44.345Z,17.60
2022-09-05T03:41:00.248Z,17.60
2022-09-05T03:43:49.154Z,17.60
2022-09-05T03:46:56.345Z,17.50
2022-09-05T03:54:17.140Z,17.50
2022-09-05T03:57:13.502Z,17.50
2022-09-05T03:57:15.451Z,17.50
2022-09-05T04:00:09.509Z,17.50
2022-09-05T04:08:06.829Z,17.40
2022-09-05T04:08:23.832Z,17.40
2022-09-05T04:09:50.501Z,17.40
2022-09-05T04:12:48.492Z,17.40
2022-09-05T04:15:59.758Z,17.30
2022-09-05T04:18:54.704Z,17.30
2022-09-05T04:21:49.089Z,17.20
2022-09-05T04:25:14.766Z,17.20
2022-09-05T04:28:29.377Z,17.10
2022-09-05T04:31:36.900Z,17.10
2022-09-05T04:34:31.123Z,17.10
2022-09-05T04:37:48.213Z,17.00
2022-09-05T04:40:51.005Z,17.00
2022-09-05T04:43:44.046Z,17.00
2022-09-05T04:46:48.422Z,17.00
2022-09-05T04:49:46.670Z,17.00
2022-09-05T04:52:58.538Z,17.00
2022-09-05T04:55:51.243Z,17.00
2022-09-05T05:00:07.587Z,17.00
2022-09-05T05:06:01.272Z,16.90
2022-09-05T05:06:18.133Z,16.80
2022-09-05T05:08:38.202Z,16.90
2022-09-05T05:17:12.884Z,16.90
2022-09-05T05:18:09.964Z,16.80
2022-09-05T05:18:53.268Z,16.90
2022-09-05T05:21:31.471Z,16.90
2022-09-05T05:24:28.033Z,16.90
2022-09-05T05:27:26.229Z,16.90
2022-09-05T05:30:23.078Z,17.00
2022-09-05T05:33:31.786Z,16.90
2022-09-05T05:36:26.688Z,16.90
2022-09-05T05:39:25.991Z,17.00
2022-09-05T05:42:26.162Z,17.00
2022-09-05T05:45:30.056Z,17.00
2022-09-05T05:48:19.423Z,17.00
2022-09-05T05:51:13.736Z,17.00
2022-09-05T05:54:26.828Z,17.00
2022-09-05T05:57:25.575Z,17.00
2022-09-05T06:00:29.276Z,17.00
2022-09-05T06:03:57.552Z,17.00
2022-09-05T06:06:55.475Z,17.00
2022-09-05T06:14:52.691Z,17.10
2022-09-05T06:15:06.063Z,17.00
2022-09-05T06:16:50.338Z,17.00
2022-09-05T06:22:06.806Z,17.00
2022-09-05T06:23:39.974Z,17.00
2022-09-05T06:26:51.213Z,17.00
2022-09-05T06:29:58.478Z,17.00
2022-09-05T06:33:07.361Z,17.00
2022-09-05T06:36:07.131Z,17.00
2022-09-05T06:38:58.824Z,16.90
2022-09-05T06:42:06.369Z,16.90
2022-09-05T06:45:10.747Z,17.00
2022-09-05T06:49:28.986Z,17.00
2022-09-05T06:52:53.335Z,17.10
2022-09-05T06:55:54.480Z,17.20
2022-09-05T06:59:09.470Z,17.20
2022-09-05T07:02:58.382Z,17.30
2022-09-05T07:05:58.466Z,17.30
2022-09-05T07:08:54.096Z,17.40
2022-09-05T07:12:09.908Z,17.40
2022-09-05T07:15:32.586Z,17.40
2022-09-05T07:18:40.932Z,17.50
2022-09-05T07:21:40.711Z,17.60
2022-09-05T07:24:55.071Z,17.60
2022-09-05T07:28:28.344Z,17.60
2022-09-05T07:31:27.431Z,17.70
2022-09-05T07:34:29.474Z,17.70
2022-09-05T07:37:25.116Z,17.70
2022-09-05T07:40:25.866Z,17.80
2022-09-05T07:43:19.063Z,17.90
2022-09-05T07:46:26.469Z,17.90
2022-09-05T07:49:27.219Z,18.00
2022-09-05T07:56:46.722Z,18.00
2022-09-05T07:57:01.603Z,18.10
2022-09-05T07:58:53.385Z,18.20
2022-09-05T08:01:47.156Z,18.30
2022-09-05T08:04:39.388Z,18.30
2022-09-05T08:07:48.801Z,18.40
2022-09-05T08:11:25.319Z,18.40
2022-09-05T08:14:43.132Z,18.50
2022-09-05T08:17:21.171Z,18.60
2022-09-05T08:20:44.201Z,18.70
2022-09-05T08:23:45.629Z,18.80
2022-09-05T08:26:47.507Z,18.90
2022-09-05T08:29:41.330Z,18.90
2022-09-05T08:33:11.351Z,19.00
2022-09-05T08:36:04.414Z,19.10
2022-09-05T08:38:51.065Z,19.20
2022-09-05T08:41:51.089Z,19.30
2022-09-05T08:46:45.796Z,19.40
2022-09-05T08:48:22.128Z,19.50
2022-09-05T08:51:41.832Z,19.60
2022-09-05T08:55:11.200Z,19.80
2022-09-05T08:58:16.171Z,19.80
2022-09-05T09:02:11.610Z,19.90
2022-09-05T09:05:07.617Z,20.00
2022-09-05T09:08:23.193Z,20.00
2022-09-05T09:11:27.764Z,20.10
2022-09-05T09:14:29.513Z,20.20
2022-09-05T09:17:45.506Z,20.30
2022-09-05T09:20:47.041Z,20.40
2022-09-05T09:23:41.901Z,20.50
2022-09-05T09:26:35.906Z,20.60
2022-09-05T09:29:23.845Z,20.70
2022-09-05T09:32:18.173Z,20.70
2022-09-05T09:35:25.433Z,20.80
2022-09-05T09:38:43.353Z,20.90
2022-09-05T09:41:45.510Z,20.90
2022-09-05T09:45:22.554Z,20.90
2022-09-05T09:48:38.642Z,21.00
2022-09-05T09:51:55.814Z,21.10
2022-09-05T09:54:44.484Z,21.10
2022-09-05T09:57:49.445Z,21.10
2022-09-05T10:01:21.549Z,21.10
2022-09-05T10:10:37.856Z,21.10
2022-09-05T10:10:57.451Z,21.20
2022-09-05T10:11:55.818Z,21.20
2022-09-05T10:15:30.445Z,21.20
2022-09-05T10:18:39.432Z,21.20
2022-09-05T10:25:38.864Z,21.20
2022-09-05T10:28:31.286Z,21.30
2022-09-05T10:35:04.547Z,21.30
2022-09-05T10:35:17.979Z,21.30
2022-09-05T10:37:44.584Z,21.30
2022-09-05T10:40:45.451Z,21.30
2022-09-05T10:43:52.165Z,21.30
2022-09-05T10:47:07.231Z,21.30
2022-09-05T10:50:26.391Z,21.30
2022-09-05T10:53:39.510Z,21.40
2022-09-05T10:56:36.146Z,21.50
2022-09-05T11:02:21.417Z,21.50
2022-09-05T11:02:45.760Z,21.60
2022-09-05T11:05:38.439Z,21.60
2022-09-05T11:08:39.544Z,21.70
2022-09-05T11:11:33.885Z,21.80
2022-09-05T11:14:35.936Z,21.90
2022-09-05T11:17:48.652Z,22.00
2022-09-05T11:21:04.811Z,22.10
2022-09-05T11:24:14.400Z,22.30
2022-09-05T11:27:27.536Z,22.50
2022-09-05T11:30:30.181Z,22.70
2022-09-05T11:37:32.120Z,22.80
2022-09-05T11:39:56.167Z,22.80
2022-09-05T11:40:32.957Z,22.90
2022-09-05T11:43:39.786Z,22.90
2022-09-05T11:46:33.459Z,22.90
2022-09-05T11:49:32.506Z,23.00
2022-09-05T11:52:57.374Z,23.00
2022-09-05T11:55:47.113Z,23.00
2022-09-05T11:58:48.516Z,23.00
2022-09-05T12:01:44.827Z,22.90
2022-09-05T12:05:47.380Z,22.90
2022-09-05T12:08:40.718Z,22.90
2022-09-05T12:11:52.193Z,22.80
2022-09-05T12:15:11.882Z,22.90
2022-09-05T12:18:30.590Z,22.70
2022-09-05T12:21:38.415Z,22.70
2022-09-05T12:25:26.539Z,22.50
2022-09-05T12:27:59.960Z,22.50
2022-09-05T12:32:36.354Z,22.40
2022-09-05T12:36:12.957Z,22.40
2022-09-05T12:40:44.519Z,22.30
2022-09-05T12:42:10.429Z,22.20
2022-09-05T12:45:09.723Z,22.20
2022-09-05T12:48:39.372Z,22.30
2022-09-05T12:51:45.995Z,22.50
2022-09-05T12:54:57.115Z,22.80
2022-09-05T13:00:58.586Z,22.90
2022-09-05T13:03:01.187Z,23.00
2022-09-05T13:04:29.969Z,23.10
2022-09-05T13:07:27.737Z,23.20
2022-09-05T13:11:08.082Z,23.40
2022-09-05T13:15:02.796Z,23.50
2022-09-05T13:16:48.100Z,23.60
2022-09-05T13:19:50.995Z,23.70
2022-09-05T13:22:38.470Z,23.70
2022-09-05T13:25:37.109Z,23.60
2022-09-05T13:28:27.012Z,23.60
2022-09-05T13:37:54.078Z,23.50
2022-09-05T13:38:01.419Z,23.50
2022-09-05T13:38:13.697Z,23.50
2022-09-05T13:41:00.112Z,23.60
2022-09-05T13:43:46.444Z,23.50
2022-09-05T13:46:41.545Z,23.60
2022-09-05T13:49:40.392Z,23.60
2022-09-05T13:52:41.557Z,23.70
2022-09-05T13:55:44.881Z,23.80
2022-09-05T13:58:57.379Z,23.80
2022-09-05T14:01:54.550Z,23.80
2022-09-05T14:05:30.553Z,23.70
2022-09-05T14:08:23.203Z,23.70
2022-09-05T14:11:45.104Z,23.70
2022-09-05T14:15:22.480Z,23.70
2022-09-05T14:19:06.229Z,23.70
2022-09-05T14:21:52.398Z,23.70
2022-09-05T14:24:46.944Z,23.80
2022-09-05T14:27:45.006Z,23.90
2022-09-05T14:35:15.051Z,24.00
2022-09-05T14:37:53.459Z,24.00
2022-09-05T14:38:07.860Z,24.10
2022-09-05T14:41:28.051Z,24.10
2022-09-05T14:44:37.888Z,24.10
2022-09-05T14:47:49.123Z,24.00
2022-09-05T14:50:49.477Z,24.00
2022-09-05T14:53:59.667Z,24.10
2022-09-05T15:00:22.833Z,24.00
2022-09-05T15:02:46.362Z,24.10
2022-09-05T15:03:16.154Z,24.00
2022-09-05T15:06:21.062Z,24.00
2022-09-05T15:11:25.482Z,23.90
2022-09-05T15:12:39.610Z,23.80
2022-09-05T15:15:35.929Z,23.70
2022-09-05T15:18:29.420Z,23.60
2022-09-05T15:21:35.271Z,23.60
2022-09-05T15:24:30.203Z,23.70
2022-09-05T15:27:19.082Z,23.70
2022-09-05T15:30:06.547Z,23.70
2022-09-05T15:33:15.877Z,23.70
2022-09-05T15:36:05.110Z,23.60
2022-09-05T15:38:55.066Z,23.50
2022-09-05T15:41:43.517Z,23.40
2022-09-05T15:44:32.299Z,23.30
2022-09-05T15:47:24.491Z,23.20
2022-09-05T15:50:22.328Z,23.20
2022-09-05T15:53:24.273Z,23.10
2022-09-05T15:56:10.821Z,23.00
2022-09-05T15:59:00.542Z,22.90
2022-09-05T16:02:00.585Z,22.80
2022-09-05T16:09:42.337Z,22.70
2022-09-05T16:10:39.842Z,22.60
2022-09-05T16:15:39.442Z,22.50
2022-09-05T16:23:19.495Z,22.50
2022-09-05T16:23:34.733Z,22.50
2022-09-05T16:24:58.031Z,22.50
2022-09-05T16:28:01.350Z,22.50
2022-09-05T16:30:48.881Z,22.60
2022-09-05T16:33:35.394Z,22.60
2022-09-05T16:36:29.711Z,22.70
2022-09-05T16:39:20.622Z,22.80
2022-09-05T16:42:47.140Z,22.80
2022-09-05T16:45:52.803Z,22.90
2022-09-05T16:48:55.559Z,23.00
2022-09-05T16:51:43.261Z,23.00
2022-09-05T16:54:33.925Z,23.10
2022-09-05T16:57:22.837Z,23.10
2022-09-05T17:00:10.309Z,23.10
2022-09-05T17:03:28.360Z,23.20
2022-09-05T17:06:59.114Z,23.20
2022-09-05T17:09:46.100Z,23.30
2022-09-05T17:12:33.600Z,23.40
2022-09-05T17:15:35.995Z,23.40
2022-09-05T17:18:26.877Z,23.30
2022-09-05T17:21:43.508Z,23.20
2022-09-05T17:29:18.105Z,23.20
2022-09-05T17:29:32.594Z,23.10
2022-09-05T17:31:47.499Z,23.10
2022-09-05T17:34:03.362Z,23.00
2022-09-05T17:37:30.298Z,22.90
2022-09-05T17:40:48.169Z,22.90
2022-09-05T17:43:39.807Z,23.00
2022-09-05T17:46:29.096Z,23.00
2022-09-05T17:49:42.753Z,23.00
2022-09-05T17:52:29.155Z,23.00
2022-09-05T17:55:18.607Z,23.10
2022-09-05T17:58:49.132Z,23.10
2022-09-05T18:01:40.362Z,23.10
2022-09-05T18:04:50.806Z,22.90
2022-09-05T18:07:54.244Z,22.70
2022-09-05T18:14:24.417Z,22.30
2022-09-05T18:17:47.506Z,22.10
2022-09-05T18:20:44.019Z,21.90
2022-09-05T18:23:43.839Z,21.80
2022-09-05T18:26:41.013Z,21.70
2022-09-05T18:29:58.899Z,21.60
2022-09-05T18:34:03.300Z,21.50
2022-09-05T18:36:25.564Z,21.40
2022-09-05T18:39:37.165Z,21.30
2022-09-05T18:42:33.281Z,21.20
2022-09-05T18:45:28.275Z,21.10
2022-09-05T18:48:25.541Z,21.10
2022-09-05T18:51:22.072Z,21.00
2022-09-05T18:54:20.271Z,20.90
2022-09-05T18:57:31.178Z,20.80
2022-09-05T19:00:47.962Z,20.70
2022-09-05T19:03:41.751Z,20.70
2022-09-05T19:06:35.660Z,20.60
2022-09-05T19:09:28.809Z,20.60
2022-09-05T19:12:32.493Z,20.60
2022-09-05T19:15:25.088Z,20.60
2022-09-05T19:18:36.971Z,20.50
2022-09-05T19:21:33.457Z,20.50
2022-09-05T19:24:21.048Z,20.50
2022-09-05T19:28:01.524Z,20.50
2022-09-05T19:36:58.095Z,20.50
2022-09-05T19:37:03.297Z,20.40
2022-09-05T19:43:28.361Z,20.40
2022-09-05T19:47:34.262Z,20.40
2022-09-05T19:47:39.126Z,20.40
2022-09-05T19:49:31.334Z,20.30
2022-09-05T19:52:18.022Z,20.30
2022-09-05T19:55:37.545Z,20.20
2022-09-05T19:58:26.622Z,20.10
2022-09-05T20:01:18.222Z,20.10
2022-09-05T20:04:07.358Z,20.00
2022-09-05T20:06:58.788Z,19.90
2022-09-05T20:09:49.747Z,19.80
2022-09-05T20:12:39.879Z,19.70
2022-09-05T20:15:36.239Z,19.60
2022-09-05T20:18:24.506Z,19.50
2022-09-05T20:21:14.089Z,19.50
2022-09-05T20:24:00.513Z,19.40
2022-09-05T20:26:48.065Z,19.30
2022-09-05T20:29:55.826Z,19.30
2022-09-05T20:32:56.397Z,19.20
2022-09-05T20:43:07.829Z,19.20
2022-09-05T20:43:16.978Z,19.10
2022-09-05T20:43:27.820Z,19.00
2022-09-05T20:45:26.591Z,19.00
2022-09-05T20:54:07.813Z,18.90
2022-09-05T20:54:21.729Z,18.90
2022-09-05T20:54:43.919Z,18.90
2022-09-05T20:57:32.168Z,18.90
2022-09-05T21:00:25.291Z,18.90
2022-09-05T21:03:15.873Z,18.80
2022-09-05T21:06:20.006Z,18.90
2022-09-05T21:09:24.852Z,18.90
2022-09-05T21:12:22.721Z,18.80
2022-09-05T21:15:53.872Z,18.80
2022-09-05T21:18:42.957Z,18.80
2022-09-05T21:21:31.582Z,18.70
2022-09-05T21:24:24.263Z,18.70
2022-09-05T21:27:24.874Z,18.70
2022-09-05T21:30:29.404Z,18.60
2022-09-05T21:33:20.437Z,18.60
2022-09-05T21:36:12.433Z,18.50
2022-09-05T21:39:10.765Z,18.50
2022-09-05T21:42:30.714Z,18.50
2022-09-05T21:47:37.714Z,18.40
2022-09-05T21:48:15.521Z,18.40
2022-09-05T21:51:11.393Z,18.40
2022-09-05T21:58:13.046Z,18.40
2022-09-05T21:59:20.625Z,18.40
2022-09-05T22:00:25.746Z,18.50
2022-09-05T22:03:18.240Z,18.50
2022-09-05T22:06:09.778Z,18.50
2022-09-05T22:09:12.889Z,18.50
2022-09-05T22:12:00.611Z,18.50
2022-09-05T22:14:52.430Z,18.50
2022-09-05T22:17:43.295Z,18.60
2022-09-05T22:20:29.922Z,18.60
2022-09-05T22:23:16.209Z,18.60
2022-09-05T22:26:06.950Z,18.70
2022-09-05T22:28:53.185Z,18.80
2022-09-05T22:31:39.534Z,18.80
2022-09-05T22:34:28.129Z,18.90
2022-09-05T22:37:17.749Z,18.80
2022-09-05T22:40:05.205Z,18.70
2022-09-05T22:43:04.677Z,18.60
2022-09-05T22:45:55.412Z,18.50
2022-09-05T22:48:41.456Z,18.30
2022-09-05T22:51:27.458Z,18.20
2022-09-05T22:54:13.154Z,18.10
2022-09-05T22:56:59.093Z,18.00
2022-09-05T22:59:45.249Z,17.90
2022-09-05T23:02:31.098Z,17.90
2022-09-05T23:05:17.719Z,17.80
2022-09-05T23:08:05.876Z,17.80
2022-09-05T23:10:51.665Z,17.80
2022-09-05T23:13:40.148Z,17.80
2022-09-05T23:16:26.548Z,17.80
2022-09-05T23:19:12.422Z,17.80
2022-09-05T23:21:58.307Z,17.80
2022-09-05T23:24:44.157Z,17.80
2022-09-05T23:27:34.667Z,17.80
2022-09-05T23:30:21.048Z,17.80
2022-09-05T23:33:08.915Z,17.70
2022-09-05T23:36:10.347Z,17.70
2022-09-05T23:38:56.352Z,17.70
2022-09-05T23:41:45.761Z,17.70
2022-09-05T23:44:35.096Z,17.70
2022-09-05T23:47:21.053Z,17.60
2022-09-05T23:50:07.333Z,17.60
2022-09-05T23:52:53.600Z,17.60
2022-09-05T23:55:41.624Z,17.50
2022-09-05T23:58:31.223Z,17.50
